createdAt,value
2022-11-08T00:01:03.896Z,89.31
2022-11-08T00:02:05.848Z,89.34
2022-11-08T00:03:07.907Z,88.61
2022-11-08T00:04:11.620Z,89.19
2022-11-08T00:05:32.026Z,89.77
2022-11-08T00:06:52.641Z,88.86
2022-11-08T00:08:12.770Z,88.77
2022-11-08T00:09:33.580Z,89.14
2022-11-08T00:10:53.694Z,88.97
2022-11-08T00:12:13.794Z,89.34
2022-11-08T00:13:34.049Z,88.47
2022-11-08T00:14:35.847Z,88.23
2022-11-08T00:15:39.088Z,88.59
2022-11-08T00:16:41.228Z,88.22
2022-11-08T00:17:43.163Z,88.27
2022-11-08T00:18:45.036Z,88.32
2022-11-08T00:19:46.946Z,88.25
2022-11-08T00:20:48.705Z,88.07
2022-11-08T00:21:50.750Z,88.30
2022-11-08T00:22:52.530Z,88.90
2022-11-08T00:23:54.561Z,89.02
2022-11-08T00:24:56.324Z,88.37
2022-11-08T00:25:58.113Z,88.19
2022-11-08T00:26:59.946Z,87.99
2022-11-08T00:28:01.739Z,87.62
2022-11-08T00:29:03.630Z,87.96
2022-11-08T00:30:05.622Z,87.46
2022-11-08T00:31:07.751Z,87.18
2022-11-08T00:32:12.013Z,87.52
2022-11-08T00:33:13.778Z,87.14
2022-11-08T00:34:15.700Z,87.41
2022-11-08T00:35:17.508Z,87.54
2022-11-08T00:36:19.284Z,87.88
2022-11-08T00:37:21.605Z,88.23
2022-11-08T00:38:23.362Z,88.56
2022-11-08T00:39:25.296Z,88.50
2022-11-08T00:40:27.071Z,88.79
2022-11-08T00:41:28.861Z,89.89
2022-11-08T00:42:30.723Z,89.78
2022-11-08T00:43:32.524Z,89.50
2022-11-08T00:44:35.000Z,89.93
2022-11-08T00:45:36.892Z,89.55
2022-11-08T00:46:39.360Z,88.88
2022-11-08T00:47:41.073Z,88.92
2022-11-08T00:48:42.915Z,88.32
2022-11-08T00:49:44.748Z,88.78
2022-11-08T00:50:46.541Z,88.00
2022-11-08T00:51:48.439Z,88.03
2022-11-08T00:52:50.188Z,88.34
2022-11-08T00:53:51.999Z,88.26
2022-11-08T00:54:53.842Z,88.68
2022-11-08T00:56:06.014Z,89.69
2022-11-08T00:57:07.851Z,89.46
2022-11-08T00:58:09.663Z,89.84
2022-11-08T00:59:12.951Z,89.56
2022-11-08T01:00:15.064Z,89.85
2022-11-08T01:01:18.247Z,89.72
2022-11-08T01:02:20.173Z,90.74
2022-11-08T01:03:22.642Z,90.27
2022-11-08T01:04:24.473Z,90.04
2022-11-08T01:05:26.339Z,90.97
2022-11-08T01:06:28.219Z,91.15
2022-11-08T01:07:30.182Z,90.44
2022-11-08T01:08:31.926Z,90.10
2022-11-08T01:09:33.732Z,90.15
2022-11-08T01:10:35.921Z,90.85
2022-11-08T01:11:38.795Z,90.80
2022-11-08T01:12:40.599Z,90.55
2022-11-08T01:13:42.845Z,89.98
2022-11-08T01:14:44.638Z,89.79
2022-11-08T01:15:47.039Z,89.83
2022-11-08T01:16:48.919Z,89.97
2022-11-08T01:17:50.733Z,89.32
2022-11-08T01:18:54.182Z,89.20
2022-11-08T01:19:56.011Z,88.72
2022-11-08T01:20:57.899Z,89.40
2022-11-08T01:21:59.813Z,88.65
2022-11-08T01:23:01.728Z,88.44
2022-11-08T01:24:03.568Z,88.93
2022-11-08T01:25:05.603Z,88.68
2022-11-08T01:26:09.152Z,89.52
2022-11-08T01:27:10.943Z,89.21
2022-11-08T01:28:13.062Z,88.29
2022-11-08T01:29:14.912Z,88.87
2022-11-08T01:30:16.744Z,89.04
2022-11-08T01:31:20.497Z,88.95
2022-11-08T01:32:22.314Z,89.09
2022-11-08T01:33:24.132Z,89.03
2022-11-08T01:34:25.890Z,88.52
2022-11-08T01:35:27.774Z,89.00
2022-11-08T01:36:29.688Z,89.03
2022-11-08T01:37:31.549Z,89.01
2022-11-08T01:38:34.142Z,88.47
2022-11-08T01:39:35.987Z,88.54
2022-11-08T01:40:47.836Z,89.54
2022-11-08T01:41:49.617Z,89.32
2022-11-08T01:42:51.531Z,89.29
2022-11-08T01:43:54.960Z,88.61
2022-11-08T01:44:58.032Z,89.17
2022-11-08T01:46:18.409Z,88.87
2022-11-08T01:47:20.242Z,88.11
2022-11-08T01:48:22.530Z,89.16
2022-11-08T01:49:27.154Z,88.75
2022-11-08T01:50:29.058Z,88.93
2022-11-08T01:51:38.043Z,89.23
2022-11-08T01:52:45.832Z,89.10
2022-11-08T01:53:48.008Z,88.99
2022-11-08T01:54:52.599Z,89.06
2022-11-08T01:55:54.529Z,90.19
2022-11-08T01:56:57.103Z,89.89
2022-11-08T01:58:04.064Z,90.15
2022-11-08T01:59:07.553Z,90.41
2022-11-08T02:00:10.747Z,90.71
2022-11-08T02:01:13.291Z,89.63
2022-11-08T02:02:15.321Z,90.29
2022-11-08T02:03:18.836Z,90.37
2022-11-08T02:04:20.643Z,89.89
2022-11-08T02:05:25.794Z,89.84
2022-11-08T02:06:29.254Z,89.96
2022-11-08T02:07:32.088Z,89.75
2022-11-08T02:08:43.733Z,89.97
2022-11-08T02:09:47.313Z,89.70
2022-11-08T02:10:51.452Z,90.07
2022-11-08T02:11:53.941Z,90.49
2022-11-08T02:12:56.520Z,90.75
2022-11-08T02:13:58.515Z,90.46
2022-11-08T02:15:00.423Z,90.95
2022-11-08T02:16:02.195Z,90.86
2022-11-08T02:17:04.427Z,91.22
2022-11-08T02:18:06.431Z,90.75
2022-11-08T02:19:10.618Z,90.45
2022-11-08T02:20:12.468Z,90.19
2022-11-08T02:21:24.947Z,90.44
2022-11-08T02:22:29.381Z,90.59
2022-11-08T02:23:51.004Z,90.88
2022-11-08T02:24:53.139Z,90.17
2022-11-08T02:25:55.351Z,90.21
2022-11-08T02:26:57.929Z,90.40
2022-11-08T02:27:59.785Z,90.96
2022-11-08T02:29:20.147Z,91.34
2022-11-08T02:30:21.920Z,90.92
2022-11-08T02:31:23.909Z,91.27
2022-11-08T02:32:25.810Z,91.07
2022-11-08T02:33:27.616Z,91.02
2022-11-08T02:34:42.837Z,90.61
2022-11-08T02:35:49.649Z,90.82
2022-11-08T02:36:51.536Z,91.43
2022-11-08T02:37:53.841Z,91.25
2022-11-08T02:38:57.832Z,90.82
2022-11-08T02:39:59.678Z,90.86
2022-11-08T02:41:01.429Z,90.83
2022-11-08T02:42:03.361Z,90.57
2022-11-08T02:43:05.215Z,91.05
2022-11-08T02:44:07.238Z,91.03
2022-11-08T02:45:09.379Z,90.60
2022-11-08T02:46:11.127Z,90.76
2022-11-08T02:47:12.960Z,90.83
2022-11-08T02:48:15.198Z,89.62
2022-11-08T02:49:17.272Z,89.90
2022-11-08T02:50:19.190Z,89.55
2022-11-08T02:51:21.031Z,90.44
2022-11-08T02:52:22.838Z,89.91
2022-11-08T02:53:24.645Z,89.89
2022-11-08T02:54:26.458Z,91.03
2022-11-08T02:55:28.837Z,90.64
2022-11-08T02:56:31.203Z,90.53
2022-11-08T02:57:33.119Z,90.78
2022-11-08T02:58:35.120Z,90.59
2022-11-08T02:59:36.885Z,90.81
2022-11-08T03:00:39.339Z,90.86
2022-11-08T03:01:41.321Z,91.29
2022-11-08T03:02:43.303Z,92.18
2022-11-08T03:03:45.212Z,92.44
2022-11-08T03:04:47.063Z,91.90
2022-11-08T03:05:48.901Z,91.76
2022-11-08T03:06:50.709Z,92.00
2022-11-08T03:07:53.429Z,92.50
2022-11-08T03:08:55.332Z,92.37
2022-11-08T03:09:57.143Z,92.24
2022-11-08T03:11:01.832Z,92.31
2022-11-08T03:12:03.766Z,92.31
2022-11-08T03:13:05.890Z,92.29
2022-11-08T03:14:07.827Z,92.58
2022-11-08T03:15:10.452Z,93.03
2022-11-08T03:16:12.375Z,92.92
2022-11-08T03:17:14.160Z,92.13
2022-11-08T03:18:16.303Z,92.48
2022-11-08T03:19:18.289Z,91.93
2022-11-08T03:20:20.044Z,91.93
2022-11-08T03:21:21.920Z,91.79
2022-11-08T03:22:23.786Z,92.23
2022-11-08T03:23:25.628Z,92.72
2022-11-08T03:24:27.485Z,91.88
2022-11-08T03:25:29.810Z,91.61
2022-11-08T03:26:32.279Z,92.16
2022-11-08T03:27:36.942Z,92.05
2022-11-08T03:28:38.847Z,91.51
2022-11-08T03:29:40.684Z,92.00
2022-11-08T03:30:42.502Z,92.26
2022-11-08T03:31:44.214Z,92.00
2022-11-08T03:32:47.122Z,91.90
2022-11-08T03:33:48.976Z,92.11
2022-11-08T03:34:50.848Z,92.08
2022-11-08T03:35:53.311Z,91.93
2022-11-08T03:36:55.093Z,91.42
2022-11-08T03:37:57.508Z,91.91
2022-11-08T03:38:59.563Z,92.13
2022-11-08T03:40:02.319Z,92.12
2022-11-08T03:41:04.250Z,92.02
2022-11-08T03:42:06.647Z,92.82
2022-11-08T03:43:08.463Z,92.26
2022-11-08T03:44:10.432Z,91.75
2022-11-08T03:45:12.573Z,92.80
2022-11-08T03:46:14.435Z,91.83
2022-11-08T03:47:16.244Z,92.70
2022-11-08T03:48:19.263Z,91.94
2022-11-08T03:49:21.474Z,92.68
2022-11-08T03:50:23.352Z,92.00
2022-11-08T03:51:25.280Z,92.50
2022-11-08T03:52:27.017Z,92.84
2022-11-08T03:53:28.942Z,92.63
2022-11-08T03:54:30.785Z,92.68
2022-11-08T03:55:32.659Z,92.79
2022-11-08T03:56:34.476Z,92.25
2022-11-08T03:57:36.865Z,92.90
2022-11-08T03:58:38.813Z,92.79
2022-11-08T03:59:40.553Z,92.91
2022-11-08T04:00:42.441Z,92.75
2022-11-08T04:01:44.499Z,93.33
2022-11-08T04:02:46.546Z,93.10
2022-11-08T04:03:48.343Z,93.43
2022-11-08T04:04:50.081Z,93.61
2022-11-08T04:05:52.010Z,93.66
2022-11-08T04:06:53.894Z,93.61
2022-11-08T04:07:55.633Z,93.60
2022-11-08T04:08:57.427Z,92.99
2022-11-08T04:09:59.243Z,93.37
2022-11-08T04:11:19.536Z,93.33
2022-11-08T04:12:40.324Z,92.56
2022-11-08T04:14:00.451Z,92.54
2022-11-08T04:15:17.145Z,92.80
2022-11-08T04:16:18.963Z,93.49
2022-11-08T04:17:40.734Z,93.14
2022-11-08T04:19:01.201Z,93.47
2022-11-08T04:20:21.304Z,93.22
2022-11-08T04:21:23.221Z,94.34
2022-11-08T04:22:25.222Z,94.38
2022-11-08T04:23:27.589Z,94.42
2022-11-08T04:24:29.395Z,94.52
2022-11-08T04:25:34.980Z,94.08
2022-11-08T04:26:37.418Z,94.30
2022-11-08T04:27:39.230Z,94.47
2022-11-08T04:28:41.660Z,94.88
2022-11-08T04:29:43.456Z,94.62
2022-11-08T04:30:45.274Z,95.07
2022-11-08T04:31:47.046Z,94.37
2022-11-08T04:32:49.029Z,94.47
2022-11-08T04:33:50.843Z,94.54
2022-11-08T04:34:52.652Z,94.42
2022-11-08T04:35:54.551Z,94.35
2022-11-08T04:36:56.475Z,94.39
2022-11-08T04:37:59.486Z,94.44
2022-11-08T04:39:01.259Z,94.16
2022-11-08T04:40:03.092Z,94.71
2022-11-08T04:41:09.618Z,94.95
2022-11-08T04:42:11.446Z,94.62
2022-11-08T04:43:13.393Z,94.01
2022-11-08T04:44:16.104Z,94.38
2022-11-08T04:45:18.053Z,93.57
2022-11-08T04:46:24.750Z,93.60
2022-11-08T04:47:27.890Z,93.61
2022-11-08T04:48:30.298Z,93.96
2022-11-08T04:49:32.063Z,93.94
2022-11-08T04:50:34.198Z,93.43
2022-11-08T04:51:36.017Z,93.01
2022-11-08T04:52:37.872Z,93.55
2022-11-08T04:53:39.775Z,93.40
2022-11-08T04:54:45.236Z,93.33
2022-11-08T04:55:46.958Z,92.97
2022-11-08T04:56:48.903Z,93.12
2022-11-08T04:57:50.683Z,93.09
2022-11-08T04:58:53.802Z,93.45
2022-11-08T04:59:55.533Z,93.18
2022-11-08T05:00:59.738Z,92.78
2022-11-08T05:02:01.776Z,93.76
2022-11-08T05:03:06.607Z,93.65
2022-11-08T05:04:09.966Z,93.43
2022-11-08T05:05:11.747Z,92.88
2022-11-08T05:06:15.625Z,93.72
2022-11-08T05:07:17.496Z,93.62
2022-11-08T05:08:19.685Z,93.60
2022-11-08T05:09:21.861Z,93.39
2022-11-08T05:10:23.705Z,93.25
2022-11-08T05:11:26.843Z,93.70
2022-11-08T05:12:28.712Z,93.41
2022-11-08T05:13:31.204Z,93.37
2022-11-08T05:14:33.077Z,93.68
2022-11-08T05:15:36.022Z,93.17
2022-11-08T05:16:37.940Z,93.59
2022-11-08T05:17:39.761Z,93.50
2022-11-08T05:18:42.195Z,93.07
2022-11-08T05:20:02.696Z,93.06
2022-11-08T05:21:22.851Z,93.00
2022-11-08T05:22:42.981Z,93.62
2022-11-08T05:23:45.380Z,93.24
2022-11-08T05:24:47.188Z,92.84
2022-11-08T05:25:49.145Z,93.22
2022-11-08T05:26:51.008Z,93.31
2022-11-08T05:27:52.842Z,93.44
2022-11-08T05:28:54.636Z,93.57
2022-11-08T05:29:56.452Z,93.47
2022-11-08T05:30:58.460Z,92.83
2022-11-08T05:32:00.222Z,92.83
2022-11-08T05:33:02.028Z,93.53
2022-11-08T05:34:04.294Z,93.49
2022-11-08T05:35:06.410Z,93.13
2022-11-08T05:36:10.904Z,93.47
2022-11-08T05:37:12.800Z,93.61
2022-11-08T05:38:15.432Z,93.52
2022-11-08T05:39:17.697Z,93.54
2022-11-08T05:40:19.523Z,93.80
2022-11-08T05:41:23.195Z,93.16
2022-11-08T05:42:25.024Z,93.67
2022-11-08T05:43:26.778Z,93.33
2022-11-08T05:44:28.792Z,92.79
2022-11-08T05:45:30.699Z,93.35
2022-11-08T05:46:32.688Z,93.40
2022-11-08T05:47:34.742Z,93.42
2022-11-08T05:48:36.582Z,93.42
2022-11-08T05:49:38.403Z,92.91
2022-11-08T05:50:40.386Z,93.36
2022-11-08T05:51:42.276Z,92.80
2022-11-08T05:52:44.118Z,92.91
2022-11-08T05:53:47.282Z,93.51
2022-11-08T05:54:49.052Z,93.61
2022-11-08T05:55:50.793Z,93.29
2022-11-08T05:56:52.707Z,93.37
2022-11-08T05:57:54.459Z,93.79
2022-11-08T05:58:56.260Z,93.83
2022-11-08T05:59:58.062Z,93.21
2022-11-08T06:01:00.715Z,93.52
2022-11-08T06:02:02.664Z,93.27
2022-11-08T06:03:05.225Z,93.14
2022-11-08T06:04:07.116Z,93.49
2022-11-08T06:05:09.465Z,93.67
2022-11-08T06:06:12.679Z,93.62
2022-11-08T06:07:14.548Z,93.62
2022-11-08T06:08:16.316Z,93.45
2022-11-08T06:09:18.113Z,93.63
2022-11-08T06:10:19.969Z,93.78
2022-11-08T06:11:25.881Z,93.76
2022-11-08T06:12:27.756Z,93.35
2022-11-08T06:13:29.836Z,93.32
2022-11-08T06:14:32.080Z,93.73
2022-11-08T06:15:33.876Z,93.79
2022-11-08T06:16:35.683Z,93.05
2022-11-08T06:17:37.582Z,93.80
2022-11-08T06:18:39.959Z,93.03
2022-11-08T06:19:41.806Z,93.03
2022-11-08T06:20:43.590Z,93.58
2022-11-08T06:21:45.321Z,93.43
2022-11-08T06:22:47.137Z,93.62
2022-11-08T06:23:54.721Z,93.05
2022-11-08T06:24:57.918Z,93.51
2022-11-08T06:25:59.916Z,93.08
2022-11-08T06:27:01.737Z,92.89
2022-11-08T06:28:03.700Z,92.67
2022-11-08T06:29:05.530Z,92.56
2022-11-08T06:30:07.712Z,92.72
2022-11-08T06:31:10.094Z,92.17
2022-11-08T06:32:11.955Z,92.63
2022-11-08T06:33:13.844Z,92.38
2022-11-08T06:34:15.637Z,92.87
2022-11-08T06:35:17.459Z,92.89
2022-11-08T06:36:21.538Z,92.80
2022-11-08T06:37:23.376Z,92.20
2022-11-08T06:38:25.390Z,92.42
2022-11-08T06:39:27.296Z,92.32
2022-11-08T06:40:29.229Z,92.81
2022-11-08T06:41:31.196Z,92.31
2022-11-08T06:42:33.079Z,92.67
2022-11-08T06:43:34.970Z,92.52
2022-11-08T06:44:36.998Z,92.72
2022-11-08T06:45:39.047Z,92.74
2022-11-08T06:46:40.785Z,92.74
2022-11-08T06:47:42.530Z,92.60
2022-11-08T06:48:44.646Z,92.71
2022-11-08T06:49:46.526Z,92.36
2022-11-08T06:50:48.691Z,92.38
2022-11-08T06:51:51.119Z,92.52
2022-11-08T06:52:58.737Z,92.74
2022-11-08T06:54:00.717Z,91.87
2022-11-08T06:55:02.540Z,91.98
2022-11-08T06:56:04.486Z,92.13
2022-11-08T06:57:06.266Z,91.93
2022-11-08T06:58:08.074Z,92.49
2022-11-08T06:59:10.466Z,92.48
2022-11-08T07:00:12.680Z,92.66
2022-11-08T07:01:14.454Z,92.37
2022-11-08T07:02:16.458Z,91.74
2022-11-08T07:03:18.735Z,91.87
2022-11-08T07:04:21.090Z,92.25
2022-11-08T07:05:23.456Z,92.27
2022-11-08T07:06:25.401Z,92.28
2022-11-08T07:07:27.162Z,91.79
2022-11-08T07:08:28.935Z,92.08
2022-11-08T07:09:30.746Z,91.82
2022-11-08T07:10:33.384Z,92.51
2022-11-08T07:11:35.376Z,92.56
2022-11-08T07:12:37.191Z,91.80
2022-11-08T07:13:38.968Z,92.03
2022-11-08T07:14:40.740Z,91.75
2022-11-08T07:15:42.586Z,92.13
2022-11-08T07:16:44.580Z,92.33
2022-11-08T07:17:46.367Z,91.81
2022-11-08T07:18:48.261Z,92.01
2022-11-08T07:19:50.058Z,92.22
2022-11-08T07:20:52.651Z,91.91
2022-11-08T07:21:54.567Z,92.09
2022-11-08T07:22:57.098Z,92.03
2022-11-08T07:23:59.047Z,91.92
2022-11-08T07:25:00.896Z,92.01
2022-11-08T07:26:05.846Z,91.58
2022-11-08T07:27:07.696Z,91.73
2022-11-08T07:28:14.284Z,91.98
2022-11-08T07:29:16.401Z,92.44
2022-11-08T07:30:18.658Z,92.56
2022-11-08T07:31:20.598Z,92.73
2022-11-08T07:32:22.435Z,92.69
2022-11-08T07:33:24.264Z,92.98
2022-11-08T07:34:26.043Z,93.13
2022-11-08T07:35:28.571Z,92.80
2022-11-08T07:36:30.345Z,92.91
2022-11-08T07:37:33.283Z,92.83
2022-11-08T07:38:35.051Z,92.64
2022-11-08T07:39:36.794Z,93.17
2022-11-08T07:40:38.563Z,92.52
2022-11-08T07:41:40.424Z,92.56
2022-11-08T07:43:11.274Z,92.46
2022-11-08T07:44:04.753Z,92.40
2022-11-08T07:45:07.361Z,92.63
2022-11-08T07:46:11.259Z,91.89
2022-11-08T07:47:13.090Z,92.26
2022-11-08T07:48:14.985Z,92.72
2022-11-08T07:49:16.736Z,92.75
2022-11-08T07:50:18.514Z,92.65
2022-11-08T07:51:20.266Z,92.39
2022-11-08T07:52:22.152Z,92.81
2022-11-08T07:53:24.415Z,92.48
2022-11-08T07:54:26.114Z,93.34
2022-11-08T07:55:28.063Z,92.60
2022-11-08T07:56:29.841Z,92.24
2022-11-08T07:57:31.632Z,92.25
2022-11-08T07:58:34.746Z,92.22
2022-11-08T07:59:36.534Z,93.03
2022-11-08T08:00:39.508Z,92.29
2022-11-08T08:01:41.482Z,92.69
2022-11-08T08:02:43.563Z,92.03
2022-11-08T08:03:45.630Z,92.34
2022-11-08T08:04:47.449Z,92.02
2022-11-08T08:05:55.387Z,91.56
2022-11-08T08:07:00.017Z,91.65
2022-11-08T08:08:02.636Z,90.84
2022-11-08T08:09:04.719Z,91.17
2022-11-08T08:10:06.737Z,90.44
2022-11-08T08:11:08.522Z,90.80
2022-11-08T08:12:10.301Z,90.79
2022-11-08T08:13:12.094Z,90.25
2022-11-08T08:14:13.938Z,90.21
2022-11-08T08:15:15.795Z,89.90
2022-11-08T08:16:17.677Z,90.82
2022-11-08T08:17:19.483Z,90.39
2022-11-08T08:18:22.097Z,89.97
2022-11-08T08:19:23.909Z,90.04
2022-11-08T08:20:25.731Z,90.00
2022-11-08T08:21:27.533Z,89.24
2022-11-08T08:22:29.663Z,88.90
2022-11-08T08:23:31.460Z,88.99
2022-11-08T08:24:33.412Z,88.48
2022-11-08T08:25:35.315Z,88.75
2022-11-08T08:26:37.253Z,88.54
2022-11-08T08:27:39.407Z,88.52
2022-11-08T08:28:41.322Z,88.54
2022-11-08T08:29:43.211Z,87.71
2022-11-08T08:30:44.994Z,87.75
2022-11-08T08:31:46.836Z,88.25
2022-11-08T08:33:02.096Z,88.80
2022-11-08T08:34:10.946Z,87.79
2022-11-08T08:35:13.217Z,87.85
2022-11-08T08:36:14.974Z,87.83
2022-11-08T08:37:17.572Z,87.76
2022-11-08T08:38:19.433Z,87.46
2022-11-08T08:39:21.309Z,86.82
2022-11-08T08:40:23.135Z,85.89
2022-11-08T08:41:24.976Z,86.23
2022-11-08T08:42:26.778Z,85.57
2022-11-08T08:43:29.275Z,86.09
2022-11-08T08:44:31.140Z,85.60
2022-11-08T08:45:34.004Z,86.25
2022-11-08T08:46:35.924Z,85.14
2022-11-08T08:47:37.822Z,84.88
2022-11-08T08:48:39.685Z,85.40
2022-11-08T08:49:41.517Z,85.24
2022-11-08T08:50:43.363Z,84.96
2022-11-08T08:51:45.262Z,83.98
2022-11-08T08:52:47.153Z,84.16
2022-11-08T08:53:48.984Z,83.69
2022-11-08T08:54:50.818Z,83.75
2022-11-08T08:55:53.102Z,84.21
2022-11-08T08:56:54.956Z,82.85
2022-11-08T08:57:56.869Z,82.57
2022-11-08T09:01:42.763Z,82.71
2022-11-08T09:02:45.035Z,82.81
2022-11-08T09:03:47.353Z,82.71
2022-11-08T09:04:49.238Z,82.69
2022-11-08T09:05:51.194Z,81.40
2022-11-08T09:06:53.685Z,82.21
2022-11-08T09:07:56.142Z,81.81
2022-11-08T09:08:57.976Z,82.23
2022-11-08T09:09:59.752Z,82.38
2022-11-08T09:11:01.667Z,81.49
2022-11-08T09:12:03.917Z,81.76
2022-11-08T09:13:05.894Z,80.39
2022-11-08T09:14:07.953Z,80.74
2022-11-08T09:15:10.636Z,79.98
2022-11-08T09:16:14.250Z,79.97
2022-11-08T09:17:16.225Z,80.00
2022-11-08T09:18:18.156Z,79.24
2022-11-08T09:19:20.022Z,79.36
2022-11-08T09:20:22.376Z,78.31
2022-11-08T09:21:24.410Z,78.28
2022-11-08T09:22:26.239Z,78.43
2022-11-08T09:23:28.174Z,78.80
2022-11-08T09:24:30.032Z,78.38
2022-11-08T09:25:32.367Z,77.64
2022-11-08T09:26:34.235Z,77.99
2022-11-08T09:27:36.241Z,77.93
2022-11-08T09:28:38.273Z,78.58
2022-11-08T09:29:40.193Z,78.06
2022-11-08T09:30:41.993Z,77.94
2022-11-08T09:31:43.874Z,77.76
2022-11-08T09:33:00.491Z,77.53
2022-11-08T09:35:10.096Z,78.19
2022-11-08T09:36:13.550Z,77.21
2022-11-08T09:37:15.418Z,76.68
2022-11-08T09:38:17.957Z,77.04
2022-11-08T09:39:20.384Z,75.84
2022-11-08T09:40:33.269Z,76.64
2022-11-08T09:41:55.639Z,75.46
2022-11-08T09:43:06.651Z,75.69
2022-11-08T09:44:15.078Z,74.48
2022-11-08T09:45:22.037Z,75.12
2022-11-08T09:46:29.075Z,73.77
2022-11-08T09:47:32.432Z,74.28
2022-11-08T09:48:42.417Z,74.04
2022-11-08T09:49:49.500Z,73.30
2022-11-08T09:50:52.838Z,73.34
2022-11-08T09:51:54.739Z,72.68
2022-11-08T09:53:14.875Z,72.63
2022-11-08T09:54:21.591Z,72.93
2022-11-08T09:55:26.971Z,73.35
2022-11-08T09:56:30.919Z,73.17
2022-11-08T09:57:37.840Z,72.58
2022-11-08T09:59:02.392Z,71.82
2022-11-08T10:00:05.838Z,71.31
2022-11-08T10:01:12.270Z,71.10
2022-11-08T10:02:18.816Z,71.95
2022-11-08T10:03:23.528Z,71.58
2022-11-08T10:04:26.925Z,71.61
2022-11-08T10:05:35.161Z,71.27
2022-11-08T10:06:52.276Z,69.38
2022-11-08T10:07:59.958Z,70.32
2022-11-08T10:09:12.298Z,71.02
2022-11-08T10:10:32.493Z,70.85
2022-11-08T10:11:40.079Z,70.01
2022-11-08T10:12:58.778Z,70.76
2022-11-08T10:14:09.861Z,69.56
2022-11-08T10:15:14.734Z,69.38
2022-11-08T10:16:23.354Z,68.22
2022-11-08T10:17:36.779Z,67.05
2022-11-08T10:18:52.950Z,67.31
2022-11-08T10:20:07.079Z,67.19
2022-11-08T10:21:27.877Z,67.75
2022-11-08T10:22:36.329Z,68.10
2022-11-08T10:23:45.649Z,66.91
2022-11-08T10:24:58.566Z,67.16
2022-11-08T10:26:01.503Z,67.09
2022-11-08T10:27:06.091Z,66.48
2022-11-08T10:28:08.530Z,67.02
2022-11-08T10:29:17.772Z,66.68
2022-11-08T10:30:21.047Z,65.52
2022-11-08T10:31:22.991Z,65.47
2022-11-08T10:32:29.087Z,65.88
2022-11-08T10:33:45.814Z,65.82
2022-11-08T10:34:55.631Z,65.63
2022-11-08T10:36:02.450Z,66.20
2022-11-08T10:37:06.920Z,65.45
2022-11-08T10:38:18.226Z,66.01
2022-11-08T10:39:28.555Z,65.62
2022-11-08T10:40:33.372Z,66.30
2022-11-08T10:41:46.015Z,65.42
2022-11-08T10:42:52.118Z,63.96
2022-11-08T10:43:57.717Z,64.29
2022-11-08T10:44:59.585Z,64.03
2022-11-08T10:46:01.941Z,64.09
2022-11-08T10:47:06.138Z,63.65
2022-11-08T10:48:10.408Z,63.66
2022-11-08T10:49:17.147Z,63.81
2022-11-08T10:50:21.222Z,64.04
2022-11-08T10:51:23.048Z,63.50
2022-11-08T10:52:24.905Z,64.41
2022-11-08T10:53:27.753Z,63.82
2022-11-08T10:54:48.302Z,64.59
2022-11-08T10:55:52.220Z,64.06
2022-11-08T10:56:56.053Z,65.33
2022-11-08T10:57:57.942Z,63.32
2022-11-08T10:58:59.840Z,62.78
2022-11-08T11:00:19.999Z,61.98
2022-11-08T11:01:23.521Z,61.85
2022-11-08T11:02:29.729Z,62.75
2022-11-08T11:03:32.076Z,61.61
2022-11-08T11:04:35.198Z,60.98
2022-11-08T11:05:38.290Z,62.88
2022-11-08T11:06:40.228Z,63.31
2022-11-08T11:07:44.540Z,63.83
2022-11-08T11:08:55.391Z,63.13
2022-11-08T11:09:57.221Z,62.61
2022-11-08T11:11:17.768Z,62.54
2022-11-08T11:12:19.654Z,60.45
2022-11-08T11:13:24.104Z,61.11
2022-11-08T11:14:26.374Z,62.59
2022-11-08T11:15:32.156Z,60.78
2022-11-08T11:16:35.360Z,59.21
2022-11-08T11:17:40.022Z,61.33
2022-11-08T11:18:51.021Z,60.23
2022-11-08T11:19:56.404Z,59.37
2022-11-08T11:20:58.241Z,61.18
2022-11-08T11:22:07.837Z,58.85
2022-11-08T11:23:11.376Z,60.65
2022-11-08T11:24:19.485Z,60.73
2022-11-08T11:25:23.799Z,60.27
2022-11-08T11:26:30.149Z,57.84
2022-11-08T11:27:34.964Z,59.60
2022-11-08T11:28:36.769Z,59.26
2022-11-08T11:29:39.289Z,57.82
2022-11-08T11:30:42.418Z,58.40
2022-11-08T11:31:45.924Z,58.64
2022-11-08T11:33:02.890Z,58.63
2022-11-08T11:34:19.666Z,58.76
2022-11-08T11:35:21.592Z,59.35
2022-11-08T11:36:24.957Z,59.60
2022-11-08T11:37:45.621Z,58.22
2022-11-08T11:38:47.338Z,59.40
2022-11-08T11:39:55.663Z,57.94
2022-11-08T11:41:02.402Z,57.93
2022-11-08T11:42:31.121Z,56.69
2022-11-08T11:43:49.936Z,57.71
2022-11-08T11:44:54.888Z,56.34
2022-11-08T11:45:59.434Z,56.98
2022-11-08T11:47:21.442Z,56.02
2022-11-08T11:48:23.334Z,56.97
2022-11-08T11:49:26.128Z,58.86
2022-11-08T11:50:35.498Z,59.14
2022-11-08T11:51:37.457Z,57.95
2022-11-08T11:52:40.239Z,56.03
2022-11-08T11:53:47.402Z,55.33
2022-11-08T11:54:50.657Z,57.49
2022-11-08T11:56:11.241Z,57.67
2022-11-08T11:57:19.309Z,57.84
2022-11-08T11:58:24.149Z,56.50
2022-11-08T11:59:44.513Z,57.39
2022-11-08T12:00:51.698Z,57.59
2022-11-08T12:01:54.208Z,55.68
2022-11-08T12:03:16.928Z,56.20
2022-11-08T12:04:24.759Z,55.99
2022-11-08T12:05:32.439Z,55.31
2022-11-08T12:06:45.269Z,56.50
2022-11-08T12:07:53.572Z,56.83
2022-11-08T12:09:15.995Z,56.68
2022-11-08T12:10:23.755Z,57.06
2022-11-08T12:11:44.307Z,57.62
2022-11-08T12:12:46.198Z,57.19
2022-11-08T12:13:54.664Z,56.90
2022-11-08T12:15:00.695Z,57.37
2022-11-08T12:16:02.491Z,57.23
2022-11-08T12:17:22.841Z,56.65
2022-11-08T12:18:44.065Z,57.88
2022-11-08T12:20:07.502Z,55.31
2022-11-08T12:21:21.172Z,57.94
2022-11-08T12:22:23.009Z,56.91
2022-11-08T12:23:39.878Z,55.53
2022-11-08T12:24:41.799Z,54.83
2022-11-08T12:25:43.609Z,55.42
2022-11-08T12:26:57.205Z,54.58
2022-11-08T12:28:11.318Z,56.02
2022-11-08T12:29:23.182Z,56.36
2022-11-08T12:30:37.234Z,54.45
2022-11-08T12:31:45.021Z,55.48
2022-11-08T12:32:49.850Z,55.10
2022-11-08T12:33:56.714Z,55.28
2022-11-08T12:35:11.606Z,56.30
2022-11-08T12:36:24.499Z,56.54
2022-11-08T12:37:29.243Z,56.50
2022-11-08T12:38:51.300Z,56.05
2022-11-08T12:39:59.843Z,56.27
2022-11-08T12:41:22.760Z,55.39
2022-11-08T12:42:48.127Z,56.54
2022-11-08T12:44:18.584Z,55.80
2022-11-08T12:45:32.448Z,54.93
2022-11-08T12:46:41.135Z,56.48
2022-11-08T12:48:06.074Z,55.45
2022-11-08T12:49:07.835Z,56.48
2022-11-08T12:50:24.617Z,56.19
2022-11-08T12:51:40.721Z,55.64
2022-11-08T12:52:54.863Z,56.79
2022-11-08T12:53:56.969Z,56.12
2022-11-08T12:55:01.116Z,56.70
2022-11-08T12:56:04.768Z,56.69
2022-11-08T12:57:10.672Z,56.88
2022-11-08T12:58:34.166Z,57.05
2022-11-08T12:59:45.084Z,56.88
2022-11-08T13:00:52.534Z,57.19
2022-11-08T13:01:55.425Z,57.05
2022-11-08T13:03:07.314Z,56.77
2022-11-08T13:04:19.837Z,57.06
2022-11-08T13:05:27.886Z,57.96
2022-11-08T13:06:29.787Z,58.34
2022-11-08T13:07:50.674Z,58.52
2022-11-08T13:09:02.719Z,57.55
2022-11-08T13:10:12.237Z,57.92
2022-11-08T13:11:19.248Z,57.87
2022-11-08T13:12:40.058Z,57.38
2022-11-08T13:13:53.378Z,57.71
2022-11-08T13:14:55.862Z,57.83
2022-11-08T13:16:08.033Z,59.05
2022-11-08T13:17:14.268Z,57.81
2022-11-08T13:18:17.059Z,56.12
2022-11-08T13:19:29.974Z,56.28
2022-11-08T13:20:40.720Z,56.18
2022-11-08T13:21:43.383Z,56.16
2022-11-08T13:22:56.556Z,56.56
2022-11-08T13:24:06.785Z,56.16
2022-11-08T13:25:18.892Z,57.36
2022-11-08T13:26:21.990Z,55.78
2022-11-08T13:27:34.368Z,57.34
2022-11-08T13:28:46.209Z,57.24
2022-11-08T13:29:48.056Z,57.46
2022-11-08T13:30:55.831Z,57.52
2022-11-08T13:31:57.716Z,57.75
2022-11-08T13:33:04.418Z,58.08
2022-11-08T13:34:09.359Z,57.77
2022-11-08T13:35:14.277Z,57.07
2022-11-08T13:36:34.846Z,56.03
2022-11-08T13:37:36.733Z,56.87
2022-11-08T13:39:01.300Z,57.41
2022-11-08T13:40:05.921Z,56.81
2022-11-08T13:41:16.947Z,56.97
2022-11-08T13:42:18.655Z,56.42
2022-11-08T13:43:23.412Z,56.38
2022-11-08T13:44:44.361Z,57.42
2022-11-08T13:45:46.247Z,56.85
2022-11-08T13:46:48.611Z,56.71
2022-11-08T13:47:53.703Z,56.59
2022-11-08T13:48:58.234Z,56.10
2022-11-08T13:50:18.813Z,55.53
2022-11-08T13:51:30.865Z,55.52
2022-11-08T13:52:44.085Z,55.33
2022-11-08T13:53:54.757Z,56.91
2022-11-08T13:54:56.633Z,56.34
2022-11-08T13:56:07.472Z,56.49
2022-11-08T13:57:16.991Z,57.64
2022-11-08T13:58:33.623Z,57.26
2022-11-08T13:59:35.608Z,57.63